Terminal Aerodrome Forecast
Issued by NWS Mt. Holly, NJ

Home | Current Version | Previous Version | Text Only | Print | Product List | Glossary On
Versions: 1 2 3 4 5 6 7 8 9 10 11 12 13 14 15 16 17 18 19 20 21 22 23 24 25
384
FTUS41 KPHI 300538
TAFABE
TAF
KABE 300538Z 3006/3106 02006KT P6SM SCT250
     FM301000 VRB03KT P6SM BKN200
     FM301900 16004KT P6SM SCT070 OVC110 PROB30 3101/3104 5SM -RA
      OVC030
     FM310400 13006KT 5SM -RA BKN025 OVC040=

USA.gov is the U.S. government's official web portal to all federal, state and local government web resources and services.